Pagrindinis puslapis
METAR-TAF:

METAR-TAF

Oro uostai :

Kota Bharu, Malaizija

platuma: 06-10N, ilguma: 102-17E, Aukštis: 5 m

Dabartinis oras

Ataskaita buvo paskelbta 1 valandą ir 18 minutes, ne 08:00 UTC
Vėjas 7 kt iš Rytų, svyruoja nuo Šiaurės/Šiaurės Rytų ir Pietryčių
Temperatūra 28°C
Drėgmė 74%
Slėgis 1010 hPa
Matomumas 10 km arba daugiau
Mažai debesys ne aukštis 1800 ft

METAR: WMKC 170800Z 08007KT 020V130 9999 FEW018 28/23 Q1010

Laikas: 17:18 (09:18 UTC)

Prognozė

Ataskaita buvo paskelbta 4 valandos ir 18 minutes, ne 05:00 UTC
Prognozė galioja nuo 17 metu 06 UTC su 18 metu 06 UTC
Vėjas 10 kt iš Rytų
Matomumas 10 km arba daugiau
Mažai debesys ne aukštis 1800 ft
Tapsmas
nuo 17 metu 12 UTC su 17 metu 13 UTC
Vėjas 6 kt iš Rytų/Šiaurės Rytų
Mažai debesys ne aukštis 2000 ft

TAF: WMKC 170500Z 1706/1806 09010KT 9999 FEW018 BECMG 1712/1713 07006KT FEW020

Orai ataskaitas ir orų prognozės (METAR, TAF).

turimą stotys yra geltonos ir raudonos taškus žemėlapyje.

Perkelti pele per norėdami pamatyti stoties vardą.

Tada spustelėkite, norėdami matyti oro stebėjimo ir prognozės.

Norėdami pakeisti žemėlapį: spustelėkite ant žalios mygtukų su juodo kryžiaus žemyn,; žalią mygtuką su brūkšneliu, jei norite nutolinti; arba žalių rodyklių gretimoms žemėlapius.


METAR-TAF: